createdAt,value
2023-06-30T00:01:35.609Z,24.67
2023-06-30T00:04:23.674Z,24.59
2023-06-30T00:07:10.648Z,24.51
2023-06-30T00:09:56.731Z,24.43
2023-06-30T00:12:43.201Z,24.52
2023-06-30T00:15:29.112Z,24.60
2023-06-30T00:18:17.021Z,24.59
2023-06-30T00:21:04.096Z,24.56
2023-06-30T00:23:50.161Z,24.63
2023-06-30T00:26:36.349Z,24.55
2023-06-30T00:29:22.312Z,24.56
2023-06-30T00:32:08.435Z,24.58
2023-06-30T00:34:55.951Z,24.56
2023-06-30T00:37:41.858Z,24.60
2023-06-30T00:40:29.264Z,24.63
2023-06-30T00:43:15.638Z,24.67
2023-06-30T00:46:01.975Z,24.62
2023-06-30T00:48:47.827Z,24.73
2023-06-30T00:51:35.176Z,24.80
2023-06-30T00:54:21.368Z,24.82
2023-06-30T00:57:08.852Z,24.87
2023-06-30T00:59:59.954Z,24.93
2023-06-30T01:02:52.250Z,24.90
2023-06-30T01:05:42.526Z,24.87
2023-06-30T01:08:34.116Z,24.84
2023-06-30T01:11:21.854Z,24.79
2023-06-30T01:14:09.116Z,24.77
2023-06-30T01:16:55.311Z,24.82
2023-06-30T01:19:45.745Z,24.86
2023-06-30T01:22:40.646Z,24.78
2023-06-30T01:25:30.596Z,24.86
2023-06-30T01:28:18.257Z,24.85
2023-06-30T01:31:07.208Z,24.92
2023-06-30T01:33:53.189Z,24.94
2023-06-30T01:36:39.624Z,25.04
2023-06-30T01:39:25.614Z,25.07
2023-06-30T01:42:13.094Z,25.05
2023-06-30T01:44:59.923Z,25.03
2023-06-30T01:47:46.375Z,24.99
2023-06-30T01:50:33.991Z,25.08
2023-06-30T01:53:20.357Z,25.11
2023-06-30T01:56:06.400Z,25.06
2023-06-30T01:58:53.942Z,24.99
2023-06-30T02:01:39.963Z,25.07
2023-06-30T02:04:26.357Z,25.04
2023-06-30T02:07:12.581Z,25.06
2023-06-30T02:09:59.317Z,24.98
2023-06-30T02:12:45.491Z,25.00
2023-06-30T02:15:32.750Z,25.03
2023-06-30T02:18:23.246Z,24.99
2023-06-30T02:21:09.268Z,25.00
2023-06-30T02:23:55.194Z,24.94
2023-06-30T02:26:41.480Z,24.93
2023-06-30T02:29:27.521Z,24.95
2023-06-30T02:32:14.782Z,24.96
2023-06-30T02:35:01.214Z,24.92
2023-06-30T02:37:47.297Z,24.79
2023-06-30T02:40:33.754Z,24.88
2023-06-30T02:43:20.351Z,24.89
2023-06-30T02:46:06.272Z,24.93
2023-06-30T02:48:53.929Z,24.90
2023-06-30T02:51:40.330Z,24.89
2023-06-30T02:54:26.176Z,24.89
2023-06-30T02:57:12.594Z,24.88
2023-06-30T02:59:58.970Z,24.82
2023-06-30T03:02:46.018Z,24.94
2023-06-30T03:05:36.043Z,24.89
2023-06-30T03:08:24.611Z,24.85
2023-06-30T03:11:12.140Z,24.96
2023-06-30T03:13:58.725Z,24.84
2023-06-30T03:16:50.215Z,24.84
2023-06-30T03:19:36.377Z,24.84
2023-06-30T03:22:24.553Z,24.78
2023-06-30T03:25:13.050Z,24.77
2023-06-30T03:27:59.036Z,24.75
2023-06-30T03:30:45.241Z,24.64
2023-06-30T03:33:31.750Z,24.62
2023-06-30T03:36:17.570Z,24.60
2023-06-30T03:39:06.109Z,24.65
2023-06-30T03:41:52.584Z,24.70
2023-06-30T03:44:38.506Z,24.67
2023-06-30T03:47:24.840Z,24.56
2023-06-30T03:50:14.110Z,24.59
2023-06-30T03:53:00.195Z,24.63
2023-06-30T03:55:47.684Z,24.59
2023-06-30T03:58:34.457Z,24.58
2023-06-30T04:01:20.357Z,24.45
2023-06-30T04:04:06.412Z,24.44
2023-06-30T04:06:52.916Z,24.41
2023-06-30T04:09:39.046Z,24.35
2023-06-30T04:12:26.230Z,24.36
2023-06-30T04:15:12.676Z,24.34
2023-06-30T04:17:59.843Z,24.46
2023-06-30T04:20:47.583Z,24.54
2023-06-30T04:23:33.854Z,24.39
2023-06-30T04:26:19.752Z,24.34
2023-06-30T04:29:06.986Z,24.37
2023-06-30T04:31:53.065Z,24.35
2023-06-30T04:34:39.391Z,24.31
2023-06-30T04:37:25.452Z,24.32
2023-06-30T04:40:12.073Z,24.28
2023-06-30T04:42:58.248Z,24.20
2023-06-30T04:45:45.857Z,24.26
2023-06-30T04:48:32.027Z,24.22
2023-06-30T04:51:17.922Z,24.30
2023-06-30T04:54:03.825Z,24.28
2023-06-30T04:56:49.874Z,24.29
2023-06-30T04:59:35.845Z,24.23
2023-06-30T05:02:23.686Z,24.22
2023-06-30T05:05:10.218Z,24.21
2023-06-30T05:07:56.565Z,24.21
2023-06-30T05:10:42.776Z,24.20
2023-06-30T05:13:28.862Z,24.17
2023-06-30T05:16:15.043Z,24.18
2023-06-30T05:19:02.707Z,24.11
2023-06-30T05:21:48.637Z,24.03
2023-06-30T05:24:34.921Z,24.06
2023-06-30T05:27:21.397Z,24.09
2023-06-30T05:30:08.621Z,24.06
2023-06-30T05:32:54.767Z,24.04
2023-06-30T05:35:42.712Z,24.04
2023-06-30T05:38:30.122Z,24.09
2023-06-30T05:41:15.908Z,24.04
2023-06-30T05:44:02.529Z,24.00
2023-06-30T05:46:49.095Z,24.09
2023-06-30T05:49:35.113Z,24.14
2023-06-30T05:52:25.988Z,24.04
2023-06-30T05:55:12.330Z,24.09
2023-06-30T05:57:58.225Z,24.13
2023-06-30T06:00:44.137Z,23.99
2023-06-30T06:03:31.886Z,23.98
2023-06-30T06:06:18.085Z,23.93
2023-06-30T06:09:05.611Z,23.92
2023-06-30T06:11:51.893Z,23.89
2023-06-30T06:14:37.790Z,23.87
2023-06-30T06:17:24.175Z,23.97
2023-06-30T06:20:10.937Z,24.00
2023-06-30T06:22:56.932Z,24.03
2023-06-30T06:25:45.636Z,24.08
2023-06-30T06:28:31.881Z,24.10
2023-06-30T06:31:18.188Z,24.04
2023-06-30T06:34:04.632Z,24.06
2023-06-30T06:36:50.602Z,24.13
2023-06-30T06:39:36.419Z,24.06
2023-06-30T06:42:24.255Z,24.10
2023-06-30T06:45:10.959Z,24.15
2023-06-30T06:48:23.475Z,24.21
2023-06-30T06:51:10.566Z,24.23
2023-06-30T06:53:56.683Z,24.30
2023-06-30T06:56:42.642Z,24.32
2023-06-30T06:59:29.956Z,24.37
2023-06-30T07:02:15.918Z,24.46
2023-06-30T07:05:02.426Z,24.35
2023-06-30T07:07:48.987Z,24.38
2023-06-30T07:10:35.439Z,24.41
2023-06-30T07:13:22.839Z,24.43
2023-06-30T07:16:10.665Z,24.42
2023-06-30T07:18:56.897Z,24.43
2023-06-30T07:21:43.196Z,24.46
2023-06-30T07:24:38.268Z,24.48
2023-06-30T07:27:28.831Z,24.52
2023-06-30T07:30:15.092Z,24.57
2023-06-30T07:33:02.606Z,24.62
2023-06-30T07:35:48.626Z,24.63
2023-06-30T07:38:34.957Z,24.66
2023-06-30T07:41:20.920Z,24.66
2023-06-30T07:44:07.398Z,24.74
2023-06-30T07:46:53.637Z,24.93
2023-06-30T07:49:41.573Z,24.94
2023-06-30T07:52:27.363Z,24.99
2023-06-30T07:55:14.705Z,24.98
2023-06-30T07:58:00.878Z,25.02
2023-06-30T08:00:47.174Z,25.07
2023-06-30T08:03:35.426Z,25.07
2023-06-30T08:10:06.585Z,25.04
2023-06-30T08:12:52.335Z,25.06
2023-06-30T08:15:38.177Z,25.05
2023-06-30T08:18:31.666Z,24.96
2023-06-30T08:21:20.623Z,25.03
2023-06-30T08:24:08.345Z,25.03
2023-06-30T08:26:54.486Z,24.93
2023-06-30T08:29:40.234Z,25.04
2023-06-30T08:32:26.270Z,24.97
2023-06-30T08:35:12.599Z,25.02
2023-06-30T08:37:58.441Z,25.03
2023-06-30T08:40:45.766Z,24.95
2023-06-30T08:43:33.283Z,24.95
2023-06-30T08:46:21.183Z,25.04
2023-06-30T08:49:07.914Z,24.96
2023-06-30T08:51:56.898Z,25.00
2023-06-30T08:54:43.277Z,25.11
2023-06-30T08:57:31.364Z,25.18
2023-06-30T09:00:18.509Z,25.34
2023-06-30T09:03:05.780Z,25.27
2023-06-30T09:05:55.909Z,25.43
2023-06-30T09:08:47.862Z,25.51
2023-06-30T09:11:34.982Z,25.52
2023-06-30T09:14:23.528Z,25.58
2023-06-30T09:17:10.129Z,25.64
2023-06-30T09:19:56.257Z,25.77
2023-06-30T09:22:51.874Z,25.88
2023-06-30T09:25:42.243Z,25.98
2023-06-30T09:28:36.195Z,26.25
2023-06-30T09:31:29.544Z,26.13
2023-06-30T09:34:16.021Z,26.36
2023-06-30T09:37:01.995Z,26.76
2023-06-30T09:39:51.655Z,26.80
2023-06-30T09:42:37.600Z,26.85
2023-06-30T09:45:23.526Z,26.84
2023-06-30T09:48:12.782Z,27.02
2023-06-30T09:50:59.317Z,27.14
2023-06-30T09:53:45.577Z,27.35
2023-06-30T09:56:31.782Z,27.44
2023-06-30T09:59:18.160Z,27.63
2023-06-30T10:02:04.274Z,27.79
2023-06-30T10:04:51.706Z,27.84
2023-06-30T10:07:38.521Z,27.99
2023-06-30T10:10:25.923Z,28.27
2023-06-30T10:13:13.749Z,28.24
2023-06-30T10:16:00.730Z,28.38
2023-06-30T10:18:48.293Z,28.34
2023-06-30T10:21:36.575Z,28.32
2023-06-30T10:24:28.025Z,28.31
2023-06-30T10:27:15.515Z,28.23
2023-06-30T10:30:01.759Z,28.15
2023-06-30T10:32:48.137Z,28.11
2023-06-30T10:35:34.854Z,27.95
2023-06-30T10:38:22.230Z,27.92
2023-06-30T10:41:15.931Z,27.75
2023-06-30T10:44:09.671Z,27.73
2023-06-30T10:46:58.228Z,27.68
2023-06-30T10:49:44.389Z,27.42
2023-06-30T10:52:31.962Z,27.44
2023-06-30T10:55:21.288Z,27.42
2023-06-30T10:58:07.694Z,27.29
2023-06-30T11:01:04.251Z,27.24
2023-06-30T11:04:14.078Z,27.40
2023-06-30T11:07:04.452Z,27.51
2023-06-30T11:10:06.427Z,27.72
2023-06-30T11:12:56.171Z,28.06
2023-06-30T11:15:49.748Z,28.10
2023-06-30T11:18:40.928Z,28.48
2023-06-30T11:21:27.116Z,28.78
2023-06-30T11:24:16.745Z,28.97
2023-06-30T11:27:05.165Z,29.27
2023-06-30T11:29:54.941Z,29.32
2023-06-30T11:32:40.864Z,29.53
2023-06-30T11:35:27.237Z,29.79
2023-06-30T11:38:13.103Z,30.04
2023-06-30T11:41:01.228Z,30.03
2023-06-30T11:43:50.163Z,30.01
2023-06-30T11:46:38.158Z,29.98
2023-06-30T11:49:25.454Z,30.04
2023-06-30T11:52:11.812Z,30.19
2023-06-30T11:54:58.080Z,30.24
2023-06-30T11:57:47.521Z,30.26
2023-06-30T12:00:33.397Z,30.30
2023-06-30T12:03:24.370Z,30.28
2023-06-30T12:06:10.169Z,30.22
2023-06-30T12:08:56.421Z,30.11
2023-06-30T12:11:42.932Z,29.84
2023-06-30T12:14:29.617Z,29.89
2023-06-30T12:17:19.830Z,30.01
2023-06-30T12:20:09.141Z,30.40
2023-06-30T12:22:58.320Z,30.64
2023-06-30T12:25:49.347Z,30.57
2023-06-30T12:28:35.472Z,30.96
2023-06-30T12:31:24.949Z,31.23
2023-06-30T12:34:11.312Z,31.54
2023-06-30T12:36:58.891Z,31.52
2023-06-30T12:39:44.632Z,31.79
2023-06-30T12:42:31.274Z,31.76
2023-06-30T12:45:17.832Z,32.02
2023-06-30T12:48:03.967Z,32.37
2023-06-30T12:50:50.003Z,32.82
2023-06-30T12:53:37.876Z,32.88
2023-06-30T12:56:23.781Z,32.86
2023-06-30T12:59:09.657Z,32.80
2023-06-30T13:01:55.653Z,32.57
2023-06-30T13:04:41.668Z,32.79
2023-06-30T13:07:27.694Z,32.65
2023-06-30T13:10:15.463Z,32.85
2023-06-30T13:13:01.576Z,33.01
2023-06-30T13:15:48.029Z,33.01
2023-06-30T13:18:34.280Z,32.90
2023-06-30T13:21:20.588Z,33.20
2023-06-30T13:24:07.336Z,33.16
2023-06-30T13:26:55.447Z,33.23
2023-06-30T13:29:48.092Z,33.23
2023-06-30T13:32:34.190Z,33.19
2023-06-30T13:35:20.925Z,33.33
2023-06-30T13:38:07.148Z,33.04
2023-06-30T13:40:53.159Z,32.13
2023-06-30T13:43:40.714Z,32.72
2023-06-30T13:46:26.946Z,32.82
2023-06-30T13:49:13.180Z,32.51
2023-06-30T13:51:59.477Z,32.75
2023-06-30T13:54:45.850Z,32.94
2023-06-30T13:57:32.024Z,32.97
2023-06-30T14:00:20.885Z,32.91
2023-06-30T14:03:07.054Z,32.81
2023-06-30T14:05:53.560Z,32.87
2023-06-30T14:08:40.004Z,32.45
2023-06-30T14:11:25.828Z,32.58
2023-06-30T14:14:11.668Z,32.43
2023-06-30T14:16:59.115Z,32.31
2023-06-30T14:19:45.974Z,32.08
2023-06-30T14:22:31.820Z,31.97
2023-06-30T14:25:22.486Z,31.71
2023-06-30T14:28:08.514Z,31.70
2023-06-30T14:30:54.513Z,31.40
2023-06-30T14:33:42.027Z,31.20
2023-06-30T14:36:28.594Z,31.31
2023-06-30T14:39:14.705Z,31.22
2023-06-30T14:42:02.761Z,31.16
2023-06-30T14:44:49.093Z,30.87
2023-06-30T14:47:35.022Z,30.65
2023-06-30T14:50:22.194Z,30.64
2023-06-30T14:53:09.021Z,30.44
2023-06-30T14:55:54.807Z,30.32
2023-06-30T14:58:40.957Z,30.25
2023-06-30T15:01:27.194Z,30.06
2023-06-30T15:04:13.668Z,30.08
2023-06-30T15:07:01.555Z,30.01
2023-06-30T15:09:47.723Z,30.02
2023-06-30T15:12:34.608Z,29.90
2023-06-30T15:15:20.772Z,29.65
2023-06-30T15:18:06.926Z,29.45
2023-06-30T15:20:52.866Z,29.55
2023-06-30T15:23:40.031Z,29.19
2023-06-30T15:26:25.895Z,29.41
2023-06-30T15:29:12.138Z,29.46
2023-06-30T15:31:58.149Z,29.43
2023-06-30T15:34:44.603Z,29.35
2023-06-30T15:37:30.464Z,29.24
2023-06-30T15:40:17.782Z,28.86
2023-06-30T15:43:05.048Z,29.02
2023-06-30T15:45:52.928Z,29.11
2023-06-30T15:48:39.234Z,29.19
2023-06-30T15:51:25.439Z,29.28
2023-06-30T15:54:11.240Z,29.18
2023-06-30T15:56:58.590Z,29.08
2023-06-30T15:59:44.687Z,29.01
2023-06-30T16:02:30.625Z,29.06
2023-06-30T16:05:17.166Z,28.97
2023-06-30T16:08:06.209Z,29.00
2023-06-30T16:10:52.328Z,28.86
2023-06-30T16:13:39.698Z,28.78
2023-06-30T16:16:25.900Z,28.84
2023-06-30T16:19:12.148Z,28.90
2023-06-30T16:21:57.996Z,28.71
2023-06-30T16:24:45.802Z,28.77
2023-06-30T16:27:32.202Z,28.72
2023-06-30T16:30:26.742Z,28.55
2023-06-30T16:33:15.911Z,28.64
2023-06-30T16:36:02.229Z,28.54
2023-06-30T16:38:48.284Z,28.59
2023-06-30T16:41:34.263Z,28.58
2023-06-30T16:44:20.055Z,28.55
2023-06-30T16:47:07.493Z,28.43
2023-06-30T16:49:53.775Z,28.50
2023-06-30T16:52:40.068Z,28.29
2023-06-30T16:55:26.306Z,28.29
2023-06-30T16:58:13.674Z,28.42
2023-06-30T17:00:59.801Z,28.47
2023-06-30T17:03:47.391Z,28.46
2023-06-30T17:06:33.242Z,28.41
2023-06-30T17:09:20.372Z,28.44
2023-06-30T17:12:07.815Z,28.49
2023-06-30T17:14:54.043Z,28.49
2023-06-30T17:17:40.292Z,28.50
2023-06-30T17:20:28.746Z,28.49
2023-06-30T17:23:15.377Z,28.46
2023-06-30T17:26:01.530Z,28.36
2023-06-30T17:28:47.353Z,28.35
2023-06-30T17:31:33.383Z,28.34
2023-06-30T17:34:19.546Z,28.28
2023-06-30T17:37:09.850Z,28.25
2023-06-30T17:39:55.796Z,28.09
2023-06-30T17:42:41.955Z,28.01
2023-06-30T17:45:28.025Z,27.78
2023-06-30T17:48:13.943Z,27.87
2023-06-30T17:51:00.473Z,27.76
2023-06-30T17:53:47.969Z,27.73
2023-06-30T17:56:33.886Z,27.71
2023-06-30T17:59:20.001Z,27.73
2023-06-30T18:02:06.769Z,27.69
2023-06-30T18:04:53.020Z,27.65
2023-06-30T18:07:38.956Z,27.61
2023-06-30T18:10:26.714Z,27.58
2023-06-30T18:13:12.727Z,27.48
2023-06-30T18:15:58.870Z,27.47
2023-06-30T18:18:45.079Z,27.45
2023-06-30T18:21:31.025Z,27.46
2023-06-30T18:24:17.645Z,27.42
2023-06-30T18:27:06.510Z,27.37
2023-06-30T18:29:52.808Z,27.25
2023-06-30T18:32:39.212Z,27.15
2023-06-30T18:35:25.136Z,27.07
2023-06-30T18:38:11.120Z,27.04
2023-06-30T18:40:56.916Z,26.98
2023-06-30T18:43:44.076Z,26.93
2023-06-30T18:46:30.153Z,26.92
2023-06-30T18:49:16.193Z,26.92
2023-06-30T18:52:02.833Z,26.85
2023-06-30T18:54:48.682Z,26.82
2023-06-30T18:57:36.366Z,26.78
2023-06-30T19:00:24.212Z,26.66
2023-06-30T19:03:13.307Z,26.62
2023-06-30T19:06:00.632Z,26.55
2023-06-30T19:08:46.896Z,26.47
2023-06-30T19:11:33.111Z,26.31
2023-06-30T19:14:18.971Z,26.21
2023-06-30T19:17:06.289Z,26.03
2023-06-30T19:19:52.343Z,25.94
2023-06-30T19:22:38.363Z,25.87
2023-06-30T19:25:24.159Z,25.86
2023-06-30T19:28:10.180Z,25.70
2023-06-30T19:30:56.214Z,25.65
2023-06-30T19:33:43.696Z,25.50
2023-06-30T19:36:32.723Z,25.41
2023-06-30T19:39:18.484Z,25.30
2023-06-30T19:42:04.690Z,25.20
2023-06-30T19:44:51.192Z,24.97
2023-06-30T19:47:37.743Z,24.95
2023-06-30T19:50:26.874Z,24.77
2023-06-30T19:53:13.425Z,24.57
2023-06-30T19:55:59.897Z,24.65
2023-06-30T19:58:45.768Z,24.57
2023-06-30T20:01:31.866Z,24.50
2023-06-30T20:04:18.338Z,24.46
2023-06-30T20:07:09.258Z,24.46
2023-06-30T20:09:55.438Z,24.42
2023-06-30T20:12:41.369Z,24.34
2023-06-30T20:15:27.550Z,24.36
2023-06-30T20:18:14.043Z,24.25
2023-06-30T20:21:01.528Z,24.17
2023-06-30T20:23:49.062Z,24.08
2023-06-30T20:26:36.249Z,24.04
2023-06-30T20:29:22.378Z,23.96
2023-06-30T20:32:09.334Z,23.91
2023-06-30T20:34:55.276Z,23.85
2023-06-30T20:37:41.234Z,23.73
2023-06-30T20:40:29.169Z,23.71
2023-06-30T20:43:14.951Z,23.61
2023-06-30T20:46:01.043Z,23.47
2023-06-30T20:48:47.386Z,23.46
2023-06-30T20:51:33.704Z,23.34
2023-06-30T20:54:19.962Z,23.33
2023-06-30T20:57:08.343Z,23.32
2023-06-30T20:59:54.535Z,23.26
2023-06-30T21:02:40.529Z,23.18
2023-06-30T21:05:26.965Z,23.03
2023-06-30T21:08:13.077Z,23.04
2023-06-30T21:10:58.944Z,23.00
2023-06-30T21:13:46.087Z,22.78
2023-06-30T21:16:31.929Z,22.80
2023-06-30T21:19:17.853Z,22.70
2023-06-30T21:22:04.474Z,22.79
2023-06-30T21:24:50.647Z,22.78
2023-06-30T21:27:36.855Z,22.68
2023-06-30T21:30:24.342Z,22.70
2023-06-30T21:33:10.161Z,22.78
2023-06-30T21:35:56.394Z,22.69
2023-06-30T21:38:42.688Z,22.62
2023-06-30T21:41:28.730Z,22.59
2023-06-30T21:44:14.531Z,22.55
2023-06-30T21:47:02.525Z,22.53
2023-06-30T21:49:48.490Z,22.48
2023-06-30T21:52:34.829Z,22.52
2023-06-30T21:55:21.069Z,22.42
2023-06-30T21:58:18.358Z,22.43
2023-06-30T22:01:05.379Z,22.41
2023-06-30T22:03:53.095Z,22.32
2023-06-30T22:06:39.037Z,22.25
2023-06-30T22:09:24.976Z,22.23
2023-06-30T22:12:13.643Z,22.17
2023-06-30T22:14:59.681Z,22.20
2023-06-30T22:17:45.554Z,22.08
2023-06-30T22:20:33.318Z,22.13
2023-06-30T22:23:19.132Z,22.21
2023-06-30T22:26:05.270Z,22.22
2023-06-30T22:28:51.636Z,22.17
2023-06-30T22:31:38.216Z,22.14
2023-06-30T22:34:25.673Z,22.12
2023-06-30T22:37:13.707Z,22.12
2023-06-30T22:39:59.520Z,22.06
2023-06-30T22:42:45.481Z,21.96
2023-06-30T22:45:31.540Z,21.97
2023-06-30T22:48:18.187Z,21.97
2023-06-30T22:51:04.313Z,21.89
2023-06-30T22:53:51.942Z,21.73
2023-06-30T22:56:38.082Z,21.69
2023-06-30T22:59:24.401Z,21.84
2023-06-30T23:02:10.375Z,21.81
2023-06-30T23:04:56.293Z,21.76
2023-06-30T23:07:42.138Z,21.60
2023-06-30T23:10:29.342Z,21.55
2023-06-30T23:13:15.445Z,21.51
2023-06-30T23:16:02.117Z,21.42
2023-06-30T23:18:48.729Z,21.50
2023-06-30T23:21:35.122Z,21.30
2023-06-30T23:24:23.831Z,21.48
2023-06-30T23:27:12.793Z,21.43
2023-06-30T23:29:59.420Z,21.27
2023-06-30T23:32:47.737Z,21.34
2023-06-30T23:35:34.102Z,21.34
2023-06-30T23:38:19.939Z,21.29
2023-06-30T23:41:05.708Z,21.15
2023-06-30T23:43:53.043Z,21.34
2023-06-30T23:46:39.243Z,21.35
2023-06-30T23:49:25.630Z,21.27
2023-06-30T23:52:11.470Z,21.39
2023-06-30T23:54:57.408Z,21.49
2023-06-30T23:57:43.740Z,21.08
